createdAt,value
2023-08-22T00:00:40.677Z,22.88
2023-08-22T00:03:08.719Z,22.92
2023-08-22T00:05:38.032Z,22.85
2023-08-22T00:08:06.806Z,22.84
2023-08-22T00:10:35.014Z,22.82
2023-08-22T00:13:03.849Z,22.76
2023-08-22T00:15:32.031Z,22.71
2023-08-22T00:17:59.897Z,22.63
2023-08-22T00:20:28.518Z,22.70
2023-08-22T00:22:57.737Z,22.64
2023-08-22T00:25:25.482Z,22.66
2023-08-22T00:27:54.108Z,22.69
2023-08-22T00:30:21.857Z,22.65
2023-08-22T00:32:50.305Z,22.62
2023-08-22T00:35:18.286Z,22.58
2023-08-22T00:37:46.060Z,22.62
2023-08-22T00:40:15.395Z,22.64
2023-08-22T00:42:43.136Z,22.64
2023-08-22T00:45:12.499Z,22.54
2023-08-22T00:47:40.999Z,22.49
2023-08-22T00:50:09.896Z,22.50
2023-08-22T00:52:39.116Z,22.47
2023-08-22T00:55:07.655Z,22.43
2023-08-22T00:57:39.067Z,22.36
2023-08-22T01:00:11.334Z,22.36
2023-08-22T01:02:39.980Z,22.37
2023-08-22T01:05:09.157Z,22.33
2023-08-22T01:07:41.270Z,22.31
2023-08-22T01:10:16.594Z,22.34
2023-08-22T01:12:53.880Z,22.32
2023-08-22T01:15:26.272Z,22.28
2023-08-22T01:17:55.760Z,22.24
2023-08-22T01:20:26.127Z,22.23
2023-08-22T01:22:55.452Z,22.18
2023-08-22T01:25:23.845Z,22.15
2023-08-22T01:28:02.107Z,22.13
2023-08-22T01:30:35.073Z,22.10
2023-08-22T01:33:07.849Z,22.09
2023-08-22T01:35:37.951Z,22.06
2023-08-22T01:38:08.139Z,22.03
2023-08-22T01:40:37.321Z,22.00
2023-08-22T01:43:05.681Z,21.98
2023-08-22T01:45:34.518Z,21.97
2023-08-22T01:48:02.715Z,21.91
2023-08-22T01:50:30.536Z,21.91
2023-08-22T01:52:58.979Z,21.94
2023-08-22T01:55:28.176Z,21.85
2023-08-22T01:57:55.909Z,21.82
2023-08-22T02:00:24.031Z,21.82
2023-08-22T02:02:52.300Z,21.82
2023-08-22T02:05:20.184Z,21.76
2023-08-22T02:07:47.967Z,21.79
2023-08-22T02:10:15.712Z,21.71
2023-08-22T02:12:44.881Z,21.67
2023-08-22T02:15:12.703Z,21.64
2023-08-22T02:17:40.751Z,21.64
2023-08-22T02:20:11.316Z,21.66
2023-08-22T02:22:40.822Z,21.63
2023-08-22T02:25:09.529Z,21.59
2023-08-22T02:27:38.345Z,21.56
2023-08-22T02:30:10.591Z,21.56
2023-08-22T02:32:41.021Z,21.52
2023-08-22T02:35:09.677Z,21.48
2023-08-22T02:37:37.778Z,21.46
2023-08-22T02:40:07.699Z,21.43
2023-08-22T02:42:35.473Z,21.38
2023-08-22T02:45:04.157Z,21.42
2023-08-22T02:47:33.872Z,21.42
2023-08-22T02:50:01.869Z,21.41
2023-08-22T02:52:30.328Z,21.38
2023-08-22T02:54:58.630Z,21.33
2023-08-22T02:57:26.560Z,21.32
2023-08-22T02:59:54.380Z,21.32
2023-08-22T03:02:22.397Z,21.29
2023-08-22T03:04:51.582Z,21.28
2023-08-22T03:07:20.558Z,21.28
2023-08-22T03:09:48.427Z,21.30
2023-08-22T03:12:16.423Z,21.27
2023-08-22T03:14:44.822Z,21.25
2023-08-22T03:17:13.381Z,21.22
2023-08-22T03:19:41.298Z,21.15
2023-08-22T03:22:11.082Z,21.17
2023-08-22T03:24:38.854Z,21.14
2023-08-22T03:27:06.816Z,21.14
2023-08-22T03:29:34.648Z,21.11
2023-08-22T03:32:02.386Z,21.09
2023-08-22T03:34:30.731Z,21.14
2023-08-22T03:36:58.931Z,21.11
2023-08-22T03:39:28.175Z,21.11
2023-08-22T03:41:56.166Z,21.03
2023-08-22T03:44:24.517Z,20.97
2023-08-22T03:46:52.946Z,20.97
2023-08-22T03:49:34.409Z,20.95
2023-08-22T03:52:02.685Z,20.92
2023-08-22T03:54:32.566Z,20.91
2023-08-22T03:57:00.524Z,20.82
2023-08-22T03:59:28.382Z,20.86
2023-08-22T04:01:56.565Z,20.83
2023-08-22T04:04:26.002Z,20.86
2023-08-22T04:06:53.780Z,20.81
2023-08-22T04:09:21.574Z,20.78
2023-08-22T04:11:50.760Z,20.77
2023-08-22T04:14:18.581Z,20.74
2023-08-22T04:16:46.841Z,20.74
2023-08-22T04:19:14.776Z,20.67
2023-08-22T04:21:43.348Z,20.68
2023-08-22T04:24:11.346Z,20.72
2023-08-22T04:26:40.000Z,20.71
2023-08-22T04:29:10.245Z,20.67
2023-08-22T04:31:37.976Z,20.65
2023-08-22T04:34:05.881Z,20.65
2023-08-22T04:36:38.664Z,20.64
2023-08-22T04:39:06.435Z,20.66
2023-08-22T04:41:34.929Z,20.59
2023-08-22T04:44:12.348Z,20.63
2023-08-22T04:46:40.403Z,20.60
2023-08-22T04:49:09.823Z,20.59
2023-08-22T04:51:37.680Z,20.57
2023-08-22T04:54:05.653Z,20.60
2023-08-22T04:56:34.404Z,20.63
2023-08-22T04:59:02.673Z,20.60
2023-08-22T05:01:32.480Z,20.64
2023-08-22T05:04:00.777Z,20.61
2023-08-22T05:06:28.818Z,20.63
2023-08-22T05:08:56.631Z,20.67
2023-08-22T05:11:25.223Z,20.67
2023-08-22T05:13:53.053Z,20.69
2023-08-22T05:16:20.961Z,20.69
2023-08-22T05:18:50.704Z,20.75
2023-08-22T05:21:18.414Z,20.75
2023-08-22T05:23:47.419Z,20.83
2023-08-22T05:26:16.676Z,20.82
2023-08-22T05:28:44.677Z,20.89
2023-08-22T05:31:20.906Z,20.95
2023-08-22T05:33:50.579Z,21.01
2023-08-22T05:36:18.938Z,20.98
2023-08-22T05:38:48.073Z,21.04
2023-08-22T05:41:15.977Z,21.07
2023-08-22T05:43:43.718Z,21.17
2023-08-22T05:46:12.104Z,21.27
2023-08-22T05:48:39.994Z,21.30
2023-08-22T05:51:09.397Z,21.29
2023-08-22T05:53:37.249Z,21.33
2023-08-22T05:56:05.401Z,21.40
2023-08-22T05:58:35.292Z,21.46
2023-08-22T06:01:09.113Z,21.55
2023-08-22T06:03:37.125Z,21.57
2023-08-22T06:06:05.627Z,21.59
2023-08-22T06:08:34.878Z,21.67
2023-08-22T06:11:02.750Z,21.71
2023-08-22T06:13:30.935Z,21.79
2023-08-22T06:15:59.595Z,21.86
2023-08-22T06:18:27.537Z,21.94
2023-08-22T06:20:59.970Z,22.04
2023-08-22T06:23:28.279Z,22.09
2023-08-22T06:25:59.078Z,22.14
2023-08-22T06:28:26.818Z,22.19
2023-08-22T06:30:55.937Z,22.26
2023-08-22T06:33:23.812Z,22.34
2023-08-22T06:35:51.592Z,22.42
2023-08-22T06:38:19.511Z,22.48
2023-08-22T06:40:47.455Z,22.53
2023-08-22T06:43:17.433Z,22.62
2023-08-22T06:45:47.170Z,22.70
2023-08-22T06:48:23.746Z,22.74
2023-08-22T06:50:56.195Z,22.80
2023-08-22T06:53:23.986Z,22.86
2023-08-22T06:55:51.805Z,22.93
2023-08-22T06:58:20.904Z,23.00
2023-08-22T07:00:48.875Z,23.09
2023-08-22T07:03:16.921Z,23.26
2023-08-22T07:05:44.778Z,23.31
2023-08-22T07:08:12.570Z,23.37
2023-08-22T07:10:40.338Z,23.46
2023-08-22T07:13:08.141Z,23.53
2023-08-22T07:15:38.562Z,23.60
2023-08-22T07:18:07.495Z,23.62
2023-08-22T07:20:35.386Z,23.70
2023-08-22T07:23:03.223Z,23.73
2023-08-22T07:25:31.072Z,23.82
2023-08-22T07:27:58.907Z,23.91
2023-08-22T07:30:26.918Z,23.94
2023-08-22T07:32:56.098Z,24.01
2023-08-22T07:35:23.909Z,24.04
2023-08-22T07:37:51.710Z,24.15
2023-08-22T07:40:19.499Z,24.22
2023-08-22T07:42:47.771Z,24.31
2023-08-22T07:45:15.607Z,24.43
2023-08-22T07:47:43.439Z,24.43
2023-08-22T07:50:12.913Z,24.53
2023-08-22T07:52:40.752Z,24.58
2023-08-22T07:55:09.470Z,24.60
2023-08-22T07:57:37.203Z,24.68
2023-08-22T08:00:09.032Z,24.76
2023-08-22T08:02:39.990Z,24.85
2023-08-22T08:05:08.974Z,24.93
2023-08-22T08:07:38.235Z,24.99
2023-08-22T08:10:06.705Z,25.02
2023-08-22T08:12:34.437Z,25.10
2023-08-22T08:15:02.321Z,25.20
2023-08-22T08:17:30.216Z,25.28
2023-08-22T08:19:58.048Z,25.32
2023-08-22T08:22:25.770Z,25.39
2023-08-22T08:24:54.854Z,25.46
2023-08-22T08:27:22.611Z,25.48
2023-08-22T08:29:50.424Z,25.67
2023-08-22T08:32:18.461Z,25.60
2023-08-22T08:34:46.247Z,25.67
2023-08-22T08:37:14.100Z,25.74
2023-08-22T08:39:41.879Z,25.81
2023-08-22T08:42:14.384Z,25.82
2023-08-22T08:44:42.809Z,25.89
2023-08-22T08:47:12.687Z,25.87
2023-08-22T08:49:40.493Z,25.91
2023-08-22T08:52:09.702Z,26.10
2023-08-22T08:54:38.024Z,26.22
2023-08-22T08:57:06.047Z,26.21
2023-08-22T08:59:35.296Z,26.23
2023-08-22T09:02:05.194Z,26.25
2023-08-22T09:04:33.122Z,26.34
2023-08-22T09:07:00.826Z,26.37
2023-08-22T09:09:35.297Z,26.41
2023-08-22T09:12:07.387Z,26.47
2023-08-22T09:14:42.833Z,26.51
2023-08-22T09:17:11.480Z,26.59
2023-08-22T09:19:39.281Z,26.75
2023-08-22T09:22:07.017Z,26.70
2023-08-22T09:24:38.595Z,26.76
2023-08-22T09:27:07.375Z,26.85
2023-08-22T09:29:36.928Z,26.88
2023-08-22T09:32:06.389Z,26.90
2023-08-22T09:34:35.485Z,26.95
2023-08-22T09:37:03.947Z,26.98
2023-08-22T09:39:32.868Z,26.97
2023-08-22T09:42:01.623Z,26.93
2023-08-22T09:44:30.640Z,27.07
2023-08-22T09:46:59.860Z,27.08
2023-08-22T09:49:29.154Z,27.15
2023-08-22T09:51:57.037Z,27.23
2023-08-22T09:54:25.450Z,27.28
2023-08-22T09:56:53.479Z,27.30
2023-08-22T09:59:21.703Z,27.27
2023-08-22T10:01:50.564Z,27.41
2023-08-22T10:04:20.605Z,27.46
2023-08-22T10:06:51.689Z,27.48
2023-08-22T10:09:21.774Z,27.48
2023-08-22T10:11:52.778Z,27.68
2023-08-22T10:14:25.428Z,27.62
2023-08-22T10:16:53.417Z,27.67
2023-08-22T10:19:26.089Z,27.82
2023-08-22T10:21:54.834Z,27.94
2023-08-22T10:24:29.433Z,27.85
2023-08-22T10:27:04.871Z,27.85
2023-08-22T10:29:36.024Z,27.88
2023-08-22T10:32:24.032Z,28.02
2023-08-22T10:35:28.552Z,28.12
2023-08-22T10:37:58.409Z,28.04
2023-08-22T10:40:31.174Z,28.16
2023-08-22T10:43:07.142Z,28.29
2023-08-22T10:45:44.626Z,28.35
2023-08-22T10:48:14.143Z,28.33
2023-08-22T10:50:44.105Z,28.40
2023-08-22T10:53:27.820Z,28.50
2023-08-22T10:55:57.254Z,28.59
2023-08-22T10:58:38.644Z,28.57
2023-08-22T11:01:12.416Z,28.50
2023-08-22T11:03:40.670Z,28.49
2023-08-22T11:06:16.507Z,28.59
2023-08-22T11:08:46.293Z,28.69
2023-08-22T11:11:15.623Z,28.56
2023-08-22T11:13:44.437Z,28.50
2023-08-22T11:16:14.757Z,28.40
2023-08-22T11:18:43.066Z,28.42
2023-08-22T11:21:11.544Z,28.47
2023-08-22T11:23:42.079Z,28.55
2023-08-22T11:26:13.426Z,28.56
2023-08-22T11:28:41.977Z,28.61
2023-08-22T11:31:16.143Z,28.62
2023-08-22T11:33:50.773Z,28.78
2023-08-22T11:36:19.724Z,28.86
2023-08-22T11:38:50.789Z,28.97
2023-08-22T11:41:22.865Z,29.02
2023-08-22T11:43:53.654Z,28.92
2023-08-22T11:46:23.384Z,29.03
2023-08-22T11:49:11.790Z,29.05
2023-08-22T11:51:39.565Z,29.01
2023-08-22T11:54:07.343Z,28.93
2023-08-22T11:56:36.503Z,28.97
2023-08-22T11:59:04.405Z,29.05
2023-08-22T12:01:33.455Z,29.08
2023-08-22T12:04:01.415Z,29.09
2023-08-22T12:06:29.644Z,29.08
2023-08-22T12:09:00.420Z,29.21
2023-08-22T12:11:29.674Z,29.06
2023-08-22T12:13:58.828Z,29.13
2023-08-22T12:16:27.983Z,29.18
2023-08-22T12:18:55.823Z,29.28
2023-08-22T12:21:23.578Z,29.27
2023-08-22T12:23:51.689Z,29.32
2023-08-22T12:26:19.597Z,29.20
2023-08-22T12:28:47.409Z,29.26
2023-08-22T12:31:16.573Z,29.33
2023-08-22T12:33:44.358Z,29.39
2023-08-22T12:36:12.273Z,29.35
2023-08-22T12:38:40.076Z,29.50
2023-08-22T12:41:08.655Z,29.52
2023-08-22T12:43:36.679Z,29.53
2023-08-22T12:46:04.452Z,29.52
2023-08-22T12:48:36.485Z,29.66
2023-08-22T12:51:04.559Z,29.71
2023-08-22T12:53:32.358Z,29.83
2023-08-22T12:56:00.258Z,29.90
2023-08-22T12:58:29.862Z,29.90
2023-08-22T13:00:57.724Z,29.82
2023-08-22T13:03:25.932Z,29.78
2023-08-22T13:05:55.234Z,29.69
2023-08-22T13:08:23.083Z,29.65
2023-08-22T13:10:53.371Z,29.68
2023-08-22T13:13:21.122Z,29.71
2023-08-22T13:15:49.694Z,29.77
2023-08-22T13:18:18.302Z,29.70
2023-08-22T13:20:46.155Z,29.63
2023-08-22T13:23:15.238Z,29.76
2023-08-22T13:25:43.331Z,29.77
2023-08-22T13:28:12.679Z,29.75
2023-08-22T13:30:41.884Z,29.71
2023-08-22T13:33:10.015Z,29.69
2023-08-22T13:35:38.126Z,29.67
2023-08-22T13:38:06.105Z,29.63
2023-08-22T13:40:35.405Z,29.67
2023-08-22T13:43:04.915Z,29.60
2023-08-22T13:45:32.928Z,29.59
2023-08-22T13:48:03.604Z,29.66
2023-08-22T13:50:33.108Z,29.63
2023-08-22T13:53:01.014Z,29.62
2023-08-22T13:55:29.488Z,29.56
2023-08-22T13:57:58.685Z,29.58
2023-08-22T14:00:28.104Z,29.58
2023-08-22T14:02:56.332Z,29.65
2023-08-22T14:05:24.493Z,29.59
2023-08-22T14:07:52.477Z,29.63
2023-08-22T14:10:24.812Z,29.69
2023-08-22T14:12:53.084Z,29.67
2023-08-22T14:15:22.684Z,29.74
2023-08-22T14:17:50.811Z,29.73
2023-08-22T14:20:19.281Z,29.69
2023-08-22T14:22:47.101Z,29.72
2023-08-22T14:25:15.188Z,29.63
2023-08-22T14:27:43.122Z,29.75
2023-08-22T14:30:13.530Z,29.67
2023-08-22T14:32:43.033Z,29.70
2023-08-22T14:35:11.676Z,29.70
2023-08-22T14:37:39.801Z,29.69
2023-08-22T14:40:08.929Z,29.65
2023-08-22T14:42:37.041Z,29.66
2023-08-22T14:45:05.746Z,29.69
2023-08-22T14:47:33.723Z,29.65
2023-08-22T14:50:03.168Z,29.66
2023-08-22T14:52:31.414Z,29.64
2023-08-22T14:55:00.329Z,29.61
2023-08-22T14:57:30.694Z,29.64
2023-08-22T14:59:58.454Z,29.63
2023-08-22T15:02:26.267Z,29.62
2023-08-22T15:04:54.090Z,29.58
2023-08-22T15:07:23.401Z,29.63
2023-08-22T15:09:51.400Z,29.67
2023-08-22T15:12:19.157Z,29.67
2023-08-22T15:14:47.052Z,29.70
2023-08-22T15:17:15.403Z,29.77
2023-08-22T15:19:43.309Z,29.67
2023-08-22T15:22:11.022Z,29.67
2023-08-22T15:24:40.598Z,29.65
2023-08-22T15:27:11.965Z,29.61
2023-08-22T15:29:40.349Z,29.64
2023-08-22T15:32:08.405Z,29.65
2023-08-22T15:34:36.186Z,29.64
2023-08-22T15:37:04.169Z,29.62
2023-08-22T15:39:31.992Z,29.57
2023-08-22T15:42:01.124Z,29.63
2023-08-22T15:44:28.875Z,29.58
2023-08-22T15:46:56.673Z,29.55
2023-08-22T15:49:24.461Z,29.52
2023-08-22T15:51:52.228Z,29.56
2023-08-22T15:54:19.995Z,29.52
2023-08-22T15:56:47.723Z,29.44
2023-08-22T15:59:16.843Z,29.39
2023-08-22T16:01:44.573Z,29.31
2023-08-22T16:04:12.420Z,29.34
2023-08-22T16:06:40.202Z,29.29
2023-08-22T16:09:08.080Z,29.28
2023-08-22T16:11:35.880Z,29.26
2023-08-22T16:14:03.711Z,29.24
2023-08-22T16:16:33.599Z,29.12
2023-08-22T16:19:01.362Z,28.95
2023-08-22T16:21:29.067Z,29.01
2023-08-22T16:23:56.821Z,28.99
2023-08-22T16:26:26.570Z,28.93
2023-08-22T16:28:55.773Z,28.80
2023-08-22T16:31:24.232Z,28.79
2023-08-22T16:33:53.508Z,28.79
2023-08-22T16:36:21.689Z,28.76
2023-08-22T16:38:49.595Z,28.71
2023-08-22T16:41:17.473Z,28.72
2023-08-22T16:43:45.323Z,28.71
2023-08-22T16:46:13.731Z,28.63
2023-08-22T16:48:41.613Z,28.67
2023-08-22T16:51:11.452Z,28.67
2023-08-22T16:53:40.831Z,28.62
2023-08-22T16:56:09.533Z,28.62
2023-08-22T16:58:40.208Z,28.59
2023-08-22T17:01:08.610Z,28.54
2023-08-22T17:03:36.795Z,28.52
2023-08-22T17:06:05.345Z,28.44
2023-08-22T17:08:34.618Z,28.50
2023-08-22T17:11:08.458Z,28.45
2023-08-22T17:13:37.118Z,28.37
2023-08-22T17:16:05.135Z,28.36
2023-08-22T17:18:33.392Z,28.35
2023-08-22T17:21:02.342Z,28.33
2023-08-22T17:23:30.378Z,28.28
2023-08-22T17:26:06.326Z,28.24
2023-08-22T17:28:34.240Z,28.19
2023-08-22T17:31:05.730Z,28.20
2023-08-22T17:33:36.743Z,28.17
2023-08-22T17:36:06.582Z,28.09
2023-08-22T17:38:34.522Z,28.03
2023-08-22T17:41:03.981Z,28.00
2023-08-22T17:43:34.180Z,27.98
2023-08-22T17:46:02.326Z,27.90
2023-08-22T17:48:30.460Z,27.93
2023-08-22T17:50:59.162Z,27.86
2023-08-22T17:53:27.672Z,27.81
2023-08-22T17:55:55.981Z,27.79
2023-08-22T17:58:24.452Z,27.78
2023-08-22T18:00:54.375Z,27.71
2023-08-22T18:03:22.494Z,27.67
2023-08-22T18:05:57.542Z,27.67
2023-08-22T18:08:26.094Z,27.62
2023-08-22T18:10:55.706Z,27.60
2023-08-22T18:13:23.502Z,27.57
2023-08-22T18:16:09.291Z,27.55
2023-08-22T18:18:40.765Z,27.49
2023-08-22T18:21:10.677Z,27.46
2023-08-22T18:23:39.203Z,27.41
2023-08-22T18:26:08.562Z,27.36
2023-08-22T18:28:36.678Z,27.37
2023-08-22T18:31:11.503Z,27.37
2023-08-22T18:33:40.231Z,27.35
2023-08-22T18:36:17.955Z,27.30
2023-08-22T18:38:46.013Z,27.25
2023-08-22T18:41:14.250Z,27.25
2023-08-22T18:43:43.723Z,27.21
2023-08-22T18:46:13.284Z,27.24
2023-08-22T18:48:42.096Z,27.20
2023-08-22T18:51:10.619Z,27.13
2023-08-22T18:53:38.733Z,27.08
2023-08-22T18:56:09.438Z,27.06
2023-08-22T18:58:38.464Z,26.98
2023-08-22T19:01:06.934Z,26.95
2023-08-22T19:03:36.229Z,26.91
2023-08-22T19:06:04.530Z,26.89
2023-08-22T19:08:32.973Z,26.81
2023-08-22T19:11:04.062Z,26.84
2023-08-22T19:13:32.136Z,26.62
2023-08-22T19:16:00.396Z,26.60
2023-08-22T19:18:28.526Z,26.58
2023-08-22T19:20:57.832Z,26.57
2023-08-22T19:23:26.086Z,26.49
2023-08-22T19:25:53.934Z,26.50
2023-08-22T19:28:21.938Z,26.43
2023-08-22T19:30:55.634Z,26.43
2023-08-22T19:33:25.595Z,26.41
2023-08-22T19:35:53.685Z,26.35
2023-08-22T19:38:23.302Z,26.35
2023-08-22T19:40:51.322Z,26.30
2023-08-22T19:43:20.121Z,26.26
2023-08-22T19:45:48.538Z,26.25
2023-08-22T19:48:16.718Z,26.17
2023-08-22T19:50:44.870Z,26.17
2023-08-22T19:53:12.890Z,26.12
2023-08-22T19:55:42.167Z,26.09
2023-08-22T19:58:09.990Z,26.06
2023-08-22T20:00:40.514Z,26.05
2023-08-22T20:03:08.362Z,26.00
2023-08-22T20:05:36.198Z,25.97
2023-08-22T20:08:04.075Z,25.94
2023-08-22T20:10:33.885Z,25.95
2023-08-22T20:13:03.358Z,25.94
2023-08-22T20:15:31.210Z,25.87
2023-08-22T20:17:59.086Z,25.81
2023-08-22T20:20:26.903Z,25.80
2023-08-22T20:22:54.653Z,25.72
2023-08-22T20:25:22.424Z,25.71
2023-08-22T20:27:50.436Z,25.71
2023-08-22T20:30:19.774Z,25.67
2023-08-22T20:32:47.717Z,25.71
2023-08-22T20:35:17.282Z,25.71
2023-08-22T20:37:47.485Z,25.66
2023-08-22T20:40:16.044Z,25.62
2023-08-22T20:42:44.099Z,25.55
2023-08-22T20:45:12.460Z,25.52
2023-08-22T20:47:41.795Z,25.42
2023-08-22T20:50:11.009Z,25.37
2023-08-22T20:52:38.879Z,25.31
2023-08-22T20:55:07.380Z,25.34
2023-08-22T20:57:35.338Z,25.30
2023-08-22T21:00:03.115Z,25.25
2023-08-22T21:02:31.145Z,25.18
2023-08-22T21:05:00.566Z,25.12
2023-08-22T21:07:28.391Z,25.09
2023-08-22T21:09:57.050Z,25.03
2023-08-22T21:12:24.944Z,25.05
2023-08-22T21:14:53.005Z,25.00
2023-08-22T21:17:20.968Z,24.98
2023-08-22T21:19:49.021Z,24.94
2023-08-22T21:22:18.435Z,24.91
2023-08-22T21:24:46.929Z,24.92
2023-08-22T21:27:15.155Z,24.84
2023-08-22T21:29:44.416Z,24.79
2023-08-22T21:32:14.627Z,24.68
2023-08-22T21:34:43.925Z,24.65
2023-08-22T21:37:12.077Z,24.62
2023-08-22T21:39:41.601Z,24.60
2023-08-22T21:42:09.469Z,24.56
2023-08-22T21:44:37.356Z,24.51
2023-08-22T21:47:05.516Z,24.49
2023-08-22T21:49:33.639Z,24.49
2023-08-22T21:52:01.471Z,24.37
2023-08-22T21:54:29.262Z,24.35
2023-08-22T21:56:58.407Z,24.29
2023-08-22T21:59:26.095Z,24.23
2023-08-22T22:01:53.934Z,24.21
2023-08-22T22:04:21.828Z,24.17
2023-08-22T22:06:49.584Z,24.13
2023-08-22T22:09:17.347Z,24.05
2023-08-22T22:11:45.156Z,24.04
2023-08-22T22:14:14.301Z,24.02
2023-08-22T22:16:45.518Z,23.97
2023-08-22T22:19:14.378Z,23.96
2023-08-22T22:21:42.841Z,23.93
2023-08-22T22:24:10.778Z,23.89
2023-08-22T22:26:38.558Z,23.89
2023-08-22T22:29:06.487Z,23.84
2023-08-22T22:31:35.630Z,23.75
2023-08-22T22:34:03.625Z,23.75
2023-08-22T22:36:31.418Z,23.70
2023-08-22T22:38:59.863Z,23.70
2023-08-22T22:41:27.768Z,23.72
2023-08-22T22:43:55.548Z,23.59
2023-08-22T22:46:23.539Z,23.59
2023-08-22T22:48:52.732Z,23.58
2023-08-22T22:51:20.542Z,23.53
2023-08-22T22:53:48.325Z,23.54
2023-08-22T22:56:16.563Z,23.45
2023-08-22T22:58:44.380Z,23.45
2023-08-22T23:01:12.457Z,23.40
2023-08-22T23:03:40.394Z,23.40
2023-08-22T23:06:10.381Z,23.36
2023-08-22T23:08:39.181Z,23.31
2023-08-22T23:11:15.787Z,23.25
2023-08-22T23:13:51.844Z,23.20
2023-08-22T23:16:19.683Z,23.24
2023-08-22T23:18:47.460Z,23.17
2023-08-22T23:21:16.546Z,23.18
2023-08-22T23:23:44.354Z,23.16
2023-08-22T23:26:12.136Z,23.09
2023-08-22T23:28:41.003Z,23.10
2023-08-22T23:31:08.824Z,23.06
2023-08-22T23:33:36.745Z,22.91
2023-08-22T23:36:04.858Z,22.89
2023-08-22T23:38:34.004Z,22.82
2023-08-22T23:41:01.856Z,22.78
2023-08-22T23:43:29.667Z,22.75
2023-08-22T23:45:57.473Z,22.72
2023-08-22T23:48:25.244Z,22.70
2023-08-22T23:50:55.960Z,22.67
2023-08-22T23:53:28.515Z,22.69
2023-08-22T23:55:57.655Z,22.69
2023-08-22T23:58:25.521Z,22.65
